Time;durP1;ratioP1;P1;durP2;ratioP2;P2;SDS_P1;SDS_P2;PMS_P1;PMS_P2;Temp;Humidity;BMP_temperature;BMP_pressure;BME280_temperature;BME280_humidity;BME280_pressure;Samples;Min_cycle;Max_cycle;Signal;HPM_P1;HPM_P2
2021/01/06 00:02:07;;;;;;;362.90;197.20;;;17.70;60.10;;;;;;5115122;28;20031;-58
2021/01/06 00:04:32;;;;;;;398.17;218.75;;;17.80;60.90;;;;;;5114837;28;20464;-58
2021/01/06 00:06:58;;;;;;;412.45;225.70;;;17.80;60.30;;;;;;5113869;28;20376;-59
2021/01/06 00:09:24;;;;;;;380.05;212.07;;;17.70;60.60;;;;;;5113922;27;20034;-66
2021/01/06 00:11:49;;;;;;;399.45;224.85;;;17.70;60.80;;;;;;5115512;27;20023;-58
2021/01/06 00:14:16;;;;;;;406.50;226.38;;;17.60;60.90;;;;;;5113801;28;20111;-60
2021/01/06 00:16:42;;;;;;;348.52;193.63;;;17.60;61.30;;;;;;5113815;28;20377;-61
2021/01/06 00:19:09;;;;;;;320.20;175.50;;;17.50;60.00;;;;;;5113283;28;20024;-62
2021/01/06 00:21:40;;;;;;;316.50;171.48;;;17.40;60.30;;;;;;5114355;28;20484;-62
2021/01/06 00:24:06;;;;;;;297.65;167.75;;;17.40;60.70;;;;;;5114588;28;20487;-61
2021/01/06 00:26:36;;;;;;;299.85;167.35;;;17.40;61.10;;;;;;5113754;28;20106;-62
2021/01/06 00:29:06;;;;;;;277.25;157.98;;;17.40;61.50;;;;;;5112310;28;20358;-64
2021/01/06 00:31:39;;;;;;;282.13;153.10;;;17.40;61.90;;;;;;5112215;28;20036;-63
2021/01/06 00:34:06;;;;;;;269.73;148.77;;;17.40;62.30;;;;;;5112073;28;20077;-62
2021/01/06 00:36:32;;;;;;;267.70;150.70;;;17.30;62.40;;;;;;5112043;28;20529;-62
2021/01/06 00:38:58;;;;;;;261.10;143.57;;;17.30;62.60;;;;;;5112113;28;20020;-62
2021/01/06 00:41:30;;;;;;;259.13;141.68;;;17.40;63.00;;;;;;5113430;28;20373;-63
2021/01/06 00:43:57;;;;;;;254.73;139.25;;;17.30;63.10;;;;;;5113832;28;20024;-61
2021/01/06 00:46:29;;;;;;;243.68;137.88;;;17.20;63.20;;;;;;5114158;28;20028;-61
2021/01/06 00:48:55;;;;;;;248.25;136.30;;;17.20;63.50;;;;;;5114013;28;20039;-62
2021/01/06 00:51:20;;;;;;;238.80;135.15;;;17.20;63.70;;;;;;5113829;28;20582;-61
2021/01/06 00:53:46;;;;;;;235.38;129.88;;;17.20;63.90;;;;;;5114356;28;20035;-61
2021/01/06 00:56:12;;;;;;;229.60;130.32;;;17.10;64.10;;;;;;5114356;28;20055;-61
2021/01/06 00:58:37;;;;;;;230.98;125.50;;;17.10;64.20;;;;;;5114310;28;20023;-61
2021/01/06 01:01:03;;;;;;;233.80;127.50;;;17.10;64.20;;;;;;5113937;28;20110;-61
2021/01/06 01:03:29;;;;;;;219.23;122.32;;;17.20;64.30;;;;;;5113880;28;20114;-61
2021/01/06 01:05:54;;;;;;;216.13;122.40;;;17.20;64.10;;;;;;5115999;28;20023;-61
2021/01/06 01:08:20;;;;;;;212.55;121.07;;;17.10;64.30;;;;;;5118424;28;20084;-61
2021/01/06 01:10:49;;;;;;;203.57;116.13;;;17.10;64.50;;;;;;5118291;28;20047;-61
2021/01/06 01:13:18;;;;;;;214.60;119.32;;;17.20;64.50;;;;;;5117831;28;20023;-61
2021/01/06 01:15:52;;;;;;;207.68;114.43;;;17.10;64.30;;;;;;5117909;28;20027;-62
2021/01/06 01:18:21;;;;;;;199.35;110.82;;;17.10;64.40;;;;;;5118291;28;20032;-61
2021/01/06 01:20:49;;;;;;;196.13;112.03;;;17.10;64.50;;;;;;5117997;28;20465;-61
2021/01/06 01:23:17;;;;;;;191.93;109.60;;;17.10;64.70;;;;;;5118100;28;20030;-60
2021/01/06 01:25:43;;;;;;;192.93;112.50;;;17.00;64.80;;;;;;5117577;28;20032;-61
2021/01/06 01:28:11;;;;;;;190.38;109.40;;;16.90;64.80;;;;;;5117561;28;20465;-62
2021/01/06 01:30:37;;;;;;;191.90;109.03;;;16.90;65.00;;;;;;5117810;27;20031;-61
2021/01/06 01:33:03;;;;;;;185.32;107.82;;;16.90;65.10;;;;;;5117839;28;20085;-61
2021/01/06 01:35:30;;;;;;;185.48;107.18;;;16.90;65.30;;;;;;5117592;28;20381;-61
2021/01/06 01:37:58;;;;;;;183.82;104.20;;;16.80;65.40;;;;;;5117568;28;20035;-61
2021/01/06 01:40:31;;;;;;;177.73;98.50;;;16.80;65.50;;;;;;5117589;28;20103;-61
2021/01/06 01:43:16;;;;;;;187.20;101.13;;;16.80;65.80;;;;;;5117510;28;20072;-62
2021/01/06 01:45:44;;;;;;;177.90;99.40;;;16.90;66.10;;;;;;5117517;28;20023;-61
2021/01/06 01:48:33;;;;;;;174.30;97.50;;;16.90;66.30;;;;;;5117286;28;20043;-61
2021/01/06 01:51:15;;;;;;;167.48;93.80;;;16.90;66.10;;;;;;5117189;28;20069;-61
2021/01/06 01:54:07;;;;;;;156.77;90.78;;;17.10;65.90;;;;;;5117418;28;20054;-61
2021/01/06 01:56:40;;;;;;;159.18;90.20;;;17.10;65.60;;;;;;5116536;28;20035;-61
2021/01/06 01:59:17;;;;;;;164.23;92.55;;;17.20;65.70;;;;;;5117344;28;20031;-61
2021/01/06 02:01:46;;;;;;;165.02;90.13;;;17.30;65.40;;;;;;5116931;28;20111;-62
2021/01/06 02:04:22;;;;;;;151.95;82.50;;;17.40;65.30;;;;;;5116822;28;20043;-61
2021/01/06 02:07:04;;;;;;;141.13;83.95;;;17.40;65.20;;;;;;5117280;28;20023;-61
2021/01/06 02:09:39;;;;;;;147.70;84.65;;;17.40;66.10;;;;;;5116605;28;20462;-61
2021/01/06 02:12:12;;;;;;;146.20;83.80;;;17.40;65.00;;;;;;5115713;28;20036;-61
2021/01/06 02:14:53;;;;;;;140.10;82.05;;;17.50;64.40;;;;;;5116141;28;20020;-61
2021/01/06 02:17:19;;;;;;;137.70;78.57;;;17.80;63.80;;;;;;5115373;28;20027;-61
2021/01/06 02:19:46;;;;;;;126.57;76.25;;;17.80;63.40;;;;;;5114443;28;20028;-61
2021/01/06 02:22:15;;;;;;;140.07;80.45;;;17.90;63.30;;;;;;5115704;28;20028;-61
2021/01/06 02:24:41;;;;;;;137.13;79.20;;;17.90;63.40;;;;;;5115745;28;20136;-61
2021/01/06 02:27:07;;;;;;;124.50;73.50;;;17.80;63.70;;;;;;5115754;28;20110;-61
2021/01/06 02:29:35;;;;;;;132.05;77.07;;;17.70;63.90;;;;;;5115470;28;20514;-61
2021/01/06 02:32:02;;;;;;;124.97;76.65;;;17.60;64.30;;;;;;5115504;28;20457;-61
2021/01/06 02:34:28;;;;;;;131.02;74.07;;;17.60;64.50;;;;;;5115420;28;20418;-61
2021/01/06 02:36:54;;;;;;;122.93;71.45;;;17.50;64.70;;;;;;5115237;28;20024;-61
2021/01/06 02:39:19;;;;;;;121.25;72.28;;;17.50;64.80;;;;;;5115403;28;20051;-61
2021/01/06 02:41:47;;;;;;;121.75;69.75;;;17.50;65.00;;;;;;5115050;28;20380;-61
2021/01/06 02:44:14;;;;;;;120.90;71.15;;;17.40;65.10;;;;;;5115527;28;20038;-61
2021/01/06 02:46:40;;;;;;;114.97;68.97;;;17.40;65.40;;;;;;5115464;28;20035;-61
2021/01/06 02:49:07;;;;;;;119.45;70.93;;;17.30;65.30;;;;;;5115067;28;20057;-61
2021/01/06 02:51:54;;;;;;;112.78;66.18;;;17.40;65.70;;;;;;5115129;28;20035;-61
2021/01/06 02:54:34;;;;;;;115.97;65.93;;;17.30;65.60;;;;;;5115298;28;20042;-61
2021/01/06 02:57:00;;;;;;;;;;;17.20;65.70;;;;;;5115721;28;20350;-61
2021/01/06 02:59:31;;;;;;;107.22;62.00;;;17.20;65.70;;;;;;5114996;28;19904;-61
2021/01/06 03:01:59;;;;;;;106.20;62.70;;;17.20;66.10;;;;;;5114757;28;20024;-61
2021/01/06 03:04:27;;;;;;;111.85;63.42;;;17.20;66.20;;;;;;5115140;28;20062;-61
2021/01/06 03:06:57;;;;;;;113.25;63.40;;;17.20;66.40;;;;;;5115007;28;20385;-61
2021/01/06 03:09:28;;;;;;;106.33;61.47;;;17.10;66.40;;;;;;5092708;28;620519;-61
2021/01/06 03:11:55;;;;;;;103.88;62.00;;;17.10;66.50;;;;;;5115843;28;20038;-61
2021/01/06 03:14:22;;;;;;;100.72;58.58;;;17.00;66.60;;;;;;5115436;28;20516;-62
2021/01/06 03:16:48;;;;;;;101.32;60.20;;;17.00;66.60;;;;;;5115719;28;20032;-61
2021/01/06 03:19:15;;;;;;;104.75;61.08;;;17.00;66.70;;;;;;5115685;28;20027;-61
2021/01/06 03:21:43;;;;;;;107.70;58.80;;;17.00;66.80;;;;;;5115587;28;20038;-61
2021/01/06 03:24:11;;;;;;;94.60;53.67;;;17.00;66.60;;;;;;5115397;28;20031;-61
2021/01/06 03:26:39;;;;;;;97.22;55.13;;;17.00;66.50;;;;;;5115379;28;20536;-61
2021/01/06 03:29:05;;;;;;;100.93;55.90;;;17.00;66.70;;;;;;5114298;28;20038;-61
2021/01/06 03:31:39;;;;;;;95.88;55.17;;;17.00;66.90;;;;;;5115380;28;20031;-61
2021/01/06 03:34:50;;;;;;;99.95;54.83;;;17.00;66.80;;;;;;5115371;28;20059;-61
2021/01/06 03:37:23;;;;;;;96.80;51.97;;;17.00;66.60;;;;;;5115245;28;20078;-61
2021/01/06 03:39:58;;;;;;;83.22;48.20;;;17.10;66.40;;;;;;5115338;28;20020;-61
2021/01/06 03:42:23;;;;;;;85.47;51.90;;;17.10;66.30;;;;;;5115419;28;20077;-61
2021/01/06 03:44:50;;;;;;;88.30;49.40;;;17.10;66.40;;;;;;5115042;28;20019;-61
2021/01/06 03:47:25;;;;;;;81.63;47.80;;;17.20;66.30;;;;;;5115102;28;20040;-61
2021/01/06 03:50:19;;;;;;;83.30;49.20;;;17.30;66.40;;;;;;5114863;28;20143;-61
2021/01/06 03:52:51;;;;;;;83.47;47.75;;;17.40;66.10;;;;;;5115215;28;20028;-61
2021/01/06 03:55:26;;;;;;;76.72;46.13;;;17.40;65.90;;;;;;5115322;28;20031;-61
2021/01/06 03:57:55;;;;;;;78.43;46.33;;;17.50;65.70;;;;;;5114986;28;20042;-61
2021/01/06 04:00:45;;;;;;;78.90;45.42;;;17.50;65.80;;;;;;5115029;28;20024;-61
2021/01/06 04:03:59;;;;;;;71.95;42.85;;;17.50;65.70;;;;;;5115310;27;20040;-61
2021/01/06 04:06:28;;;;;;;80.30;45.42;;;17.40;65.70;;;;;;5100251;28;20108;-61
2021/01/06 04:08:55;;;;;;;74.80;44.45;;;17.50;65.80;;;;;;5114429;28;20427;-61
2021/01/06 04:11:27;;;;;;;72.45;42.22;;;17.40;65.80;;;;;;5114633;28;20358;-61
2021/01/06 04:13:52;;;;;;;74.53;42.53;;;18.50;65.50;;;;;;5114719;28;20125;-61
2021/01/06 04:16:18;;;;;;;75.80;43.50;;;17.50;65.70;;;;;;5114513;28;20469;-61
2021/01/06 04:18:44;;;;;;;76.30;42.25;;;17.50;65.40;;;;;;5114428;28;20457;-62
2021/01/06 04:21:12;;;;;;;67.97;38.70;;;17.40;64.10;;;;;;5113295;28;20437;-61
2021/01/06 04:23:37;;;;;;;61.10;37.90;;;17.60;65.00;;;;;;5114418;28;20019;-61
2021/01/06 04:26:03;;;;;;;72.55;41.38;;;17.60;65.00;;;;;;5114182;28;20081;-61
2021/01/06 04:28:33;;;;;;;67.57;38.22;;;17.50;65.20;;;;;;5114357;28;20028;-61
2021/01/06 04:31:03;;;;;;;69.05;41.17;;;17.50;65.20;;;;;;5114436;28;20034;-61
2021/01/06 04:33:31;;;;;;;67.53;37.35;;;17.40;65.40;;;;;;5114295;28;20035;-61
2021/01/06 04:36:00;;;;;;;69.82;38.90;;;17.50;65.60;;;;;;5114245;28;20106;-61
2021/01/06 04:38:28;;;;;;;59.60;37.40;;;17.60;65.00;;;;;;5114209;28;20147;-61
2021/01/06 04:40:57;;;;;;;61.40;36.00;;;17.60;64.90;;;;;;5114260;28;20066;-61
2021/01/06 04:43:43;;;;;;;60.22;35.75;;;17.60;64.90;;;;;;5114196;28;20038;-61
2021/01/06 04:46:33;;;;;;;63.08;34.65;;;17.60;64.80;;;;;;5114254;28;20016;-61
2021/01/06 04:49:17;;;;;;;60.17;34.47;;;17.50;65.00;;;;;;5114042;28;20035;-61
2021/01/06 04:52:01;;;;;;;54.00;32.72;;;17.50;65.20;;;;;;5114218;28;20035;-61
2021/01/06 04:54:40;;;;;;;59.88;34.88;;;17.40;65.40;;;;;;5114060;28;20028;-61
2021/01/06 04:57:30;;;;;;;57.85;33.88;;;17.30;65.60;;;;;;5114136;28;20035;-61
2021/01/06 05:00:14;;;;;;;57.13;32.07;;;17.30;65.80;;;;;;5114042;28;20028;-61
2021/01/06 05:03:14;;;;;;;51.08;30.92;;;17.20;66.00;;;;;;5113993;28;20607;-61
2021/01/06 05:05:51;;;;;;;56.70;31.77;;;17.20;66.10;;;;;;5114472;28;20045;-61
2021/01/06 05:08:22;;;;;;;54.00;32.50;;;17.20;66.00;;;;;;5113889;28;20034;-61
2021/01/06 05:10:58;;;;;;;;;;;17.20;66.10;;;;;;5114008;28;20051;-61
2021/01/06 05:13:33;;;;;;;52.65;30.58;;;17.20;66.30;;;;;;5113679;28;19957;-61
2021/01/06 05:16:12;;;;;;;49.05;28.88;;;17.20;66.10;;;;;;5113747;28;20465;-61
2021/01/06 05:18:40;;;;;;;47.63;28.83;;;17.30;66.00;;;;;;5114090;28;20097;-61
2021/01/06 05:21:15;;;;;;;49.25;29.15;;;17.40;65.70;;;;;;5113642;28;20035;-61
2021/01/06 05:23:42;;;;;;;50.58;27.67;;;17.50;65.50;;;;;;5113808;28;20404;-61
2021/01/06 05:26:08;;;;;;;50.95;28.85;;;17.60;65.20;;;;;;5113742;28;20034;-61
2021/01/06 05:28:33;;;;;;;48.97;28.50;;;17.60;65.10;;;;;;5113673;28;20123;-61
2021/01/06 05:30:59;;;;;;;50.17;26.17;;;17.70;64.80;;;;;;5113785;28;20065;-61
2021/01/06 05:33:30;;;;;;;48.58;28.70;;;17.80;64.70;;;;;;5113744;28;20103;-61
2021/01/06 05:35:56;;;;;;;44.13;25.83;;;17.90;64.50;;;;;;5113701;28;20041;-61
2021/01/06 05:38:21;;;;;;;44.60;26.15;;;17.90;64.30;;;;;;5113707;28;20092;-61
2021/01/06 05:40:47;;;;;;;44.72;25.88;;;18.00;64.30;;;;;;5113884;28;20035;-61
2021/01/06 05:43:32;;;;;;;44.67;26.52;;;18.10;63.90;;;;;;5113687;28;20031;-61
2021/01/06 05:46:02;;;;;;;43.72;25.95;;;18.20;63.70;;;;;;5113725;28;20070;-61
2021/01/06 05:49:14;;;;;;;44.13;25.63;;;18.30;63.60;;;;;;5113445;28;20039;-61
2021/01/06 05:51:50;;;;;;;45.70;24.40;;;18.30;63.30;;;;;;5052300;28;20037;-61
2021/01/06 05:54:48;;;;;;;42.25;24.58;;;18.40;63.10;;;;;;5113261;27;20065;-61
2021/01/06 05:57:32;;;;;;;44.70;24.10;;;18.50;62.80;;;;;;5117368;28;20055;-61
2021/01/06 06:00:19;;;;;;;38.05;23.15;;;18.60;62.50;;;;;;5117420;28;20050;-61
2021/01/06 06:03:05;;;;;;;37.72;21.98;;;18.70;62.10;;;;;;5117076;28;20072;-62
2021/01/06 06:05:56;;;;;;;41.22;22.60;;;18.90;61.30;;;;;;5117210;27;20023;-61
2021/01/06 06:08:43;;;;;;;38.75;22.30;;;19.10;60.40;;;;;;5117130;28;20476;-61
2021/01/06 06:11:36;;;;;;;40.72;24.67;;;19.20;59.90;;;;;;5116831;28;20055;-61
2021/01/06 06:14:16;;;;;;;41.08;23.67;;;19.30;59.80;;;;;;5117368;28;20031;-61
2021/01/06 06:17:13;;;;;;;36.20;20.67;;;19.30;59.60;;;;;;5116793;28;20035;-61
2021/01/06 06:20:10;;;;;;;41.22;22.25;;;19.40;60.20;;;;;;5108120;28;20036;-61
2021/01/06 06:23:12;;;;;;;37.50;21.20;;;19.40;59.50;;;;;;5116818;28;20042;-61
2021/01/06 06:25:48;;;;;;;37.65;20.85;;;19.40;59.50;;;;;;5103102;28;20518;-61
2021/01/06 06:28:21;;;;;;;34.63;20.30;;;19.40;59.50;;;;;;5116855;28;20034;-61
2021/01/06 06:31:11;;;;;;;33.63;20.83;;;19.40;59.70;;;;;;5116823;28;20477;-61
2021/01/06 06:33:36;;;;;;;34.88;20.35;;;19.30;59.80;;;;;;5116692;28;20107;-61
2021/01/06 06:36:20;;;;;;;33.05;19.65;;;19.30;59.80;;;;;;5116493;27;20525;-61
2021/01/06 06:38:47;;;;;;;32.85;19.38;;;19.30;59.90;;;;;;5116437;28;20080;-61
2021/01/06 06:41:21;;;;;;;31.65;19.55;;;19.20;60.20;;;;;;5116565;28;20384;-61
2021/01/06 06:43:49;;;;;;;32.53;18.88;;;19.10;60.30;;;;;;5116559;28;20045;-61
2021/01/06 06:46:53;;;;;;;35.80;18.98;;;19.10;60.50;;;;;;5116325;28;20051;-61
2021/01/06 06:49:37;;;;;;;31.25;18.98;;;19.00;60.70;;;;;;5116560;28;20032;-61
2021/01/06 06:52:38;;;;;;;31.58;16.98;;;18.90;60.90;;;;;;5116564;28;20438;-61
2021/01/06 06:55:31;;;;;;;30.25;17.10;;;19.00;60.90;;;;;;5116860;28;20028;-61
2021/01/06 06:58:22;;;;;;;29.80;17.83;;;18.90;61.10;;;;;;5116432;28;20032;-61
2021/01/06 07:00:49;;;;;;;27.42;16.80;;;18.90;60.50;;;;;;5116007;28;20473;-61
2021/01/06 07:03:21;;;;;;;26.02;15.27;;;18.90;61.20;;;;;;5114517;28;20046;-61
2021/01/06 07:05:49;;;;;;;27.65;15.50;;;18.90;61.20;;;;;;5116208;28;20019;-61
2021/01/06 07:08:17;;;;;;;28.33;16.38;;;18.90;61.10;;;;;;5115732;28;20063;-61
2021/01/06 07:11:04;;;;;;;26.45;16.13;;;18.70;61.40;;;;;;5115764;28;20047;-61
2021/01/06 07:13:33;;;;;;;24.17;14.30;;;18.70;61.70;;;;;;5115531;27;20507;-61
2021/01/06 07:16:32;;;;;;;29.23;16.38;;;18.60;62.00;;;;;;5116022;28;20028;-61
2021/01/06 07:19:17;;;;;;;27.70;15.13;;;18.50;62.30;;;;;;5104153;28;20035;-61
2021/01/06 07:21:50;;;;;;;22.42;13.40;;;18.40;62.60;;;;;;5115759;28;20034;-61
2021/01/06 07:24:20;;;;;;;23.80;14.40;;;18.40;62.80;;;;;;5115784;28;20117;-61
2021/01/06 07:26:48;;;;;;;26.48;13.50;;;18.30;63.00;;;;;;5115621;28;20466;-61
2021/01/06 07:29:17;;;;;;;25.33;14.60;;;18.30;63.20;;;;;;5115602;28;20070;-61
2021/01/06 07:31:56;;;;;;;26.50;15.07;;;18.20;63.30;;;;;;5115451;27;20400;-61
2021/01/06 07:34:37;;;;;;;24.48;13.57;;;18.10;63.50;;;;;;5115099;28;20132;-61
2021/01/06 07:37:03;;;;;;;;;;;18.10;63.50;;;;;;5116104;28;20031;-61
2021/01/06 07:39:31;;;;;;;23.20;13.68;;;18.10;63.50;;;;;;5115192;28;19904;-61
2021/01/06 07:42:06;;;;;;;19.77;12.75;;;18.20;63.30;;;;;;5115124;28;20468;-61
2021/01/06 07:44:38;;;;;;;26.45;14.15;;;18.30;63.10;;;;;;5115306;28;20023;-61
2021/01/06 07:47:03;;;;;;;24.35;13.45;;;18.20;63.30;;;;;;5115153;28;20031;-61
2021/01/06 07:49:50;;;;;;;21.95;12.13;;;18.20;63.50;;;;;;5115213;28;20050;-61
2021/01/06 07:52:25;;;;;;;23.05;12.23;;;18.20;63.30;;;;;;5115188;28;20032;-61
2021/01/06 07:54:59;;;;;;;24.33;12.73;;;18.30;63.10;;;;;;5115016;28;20023;-61
2021/01/06 07:57:42;;;;;;;20.63;11.77;;;18.30;62.90;;;;;;5114713;28;20039;-61
2021/01/06 08:00:30;;;;;;;20.52;11.85;;;18.40;62.80;;;;;;5115174;28;20020;-61
2021/01/06 08:03:05;;;;;;;20.05;12.48;;;18.40;62.70;;;;;;5114406;28;20036;-61
2021/01/06 08:05:34;;;;;;;18.75;11.30;;;18.50;62.60;;;;;;5114775;28;20032;-61
2021/01/06 08:08:05;;;;;;;19.92;10.85;;;18.60;62.30;;;;;;5114720;28;20039;-61
2021/01/06 08:10:31;;;;;;;20.08;10.98;;;18.60;62.10;;;;;;5114765;28;20097;-61
2021/01/06 08:13:12;;;;;;;20.15;11.50;;;18.70;62.10;;;;;;5113369;28;20026;-61
2021/01/06 08:15:38;;;;;;;;;;;18.80;61.80;;;;;;5114643;28;20057;-61
2021/01/06 08:18:27;;;;;;;16.35;10.73;;;19.00;60.90;;;;;;5114573;28;19988;-61
2021/01/06 08:21:15;;;;;;;19.10;10.98;;;19.00;60.60;;;;;;5115030;28;20027;-61
2021/01/06 08:24:15;;;;;;;18.30;10.35;;;19.00;60.70;;;;;;5114509;28;20060;-61
2021/01/06 08:26:56;;;;;;;17.00;9.82;;;18.90;60.80;;;;;;5114776;28;20023;-61
2021/01/06 08:29:23;;;;;;;18.67;10.23;;;18.80;60.90;;;;;;5114190;28;20039;-61
2021/01/06 08:31:52;;;;;;;19.00;10.95;;;18.80;60.90;;;;;;5114205;28;20434;-61
2021/01/06 08:34:25;;;;;;;17.15;9.85;;;18.80;61.10;;;;;;5114380;28;20453;-61
2021/01/06 08:37:21;;;;;;;19.65;11.05;;;18.70;61.30;;;;;;5114282;28;20035;-61
2021/01/06 08:39:55;;;;;;;15.85;9.43;;;18.70;61.60;;;;;;5109936;28;20047;-61
2021/01/06 08:42:25;;;;;;;16.23;9.85;;;18.60;61.80;;;;;;5114190;28;20032;-61
2021/01/06 08:45:01;;;;;;;16.42;8.95;;;18.60;62.00;;;;;;5114216;28;20533;-61
2021/01/06 08:47:36;;;;;;;16.77;9.73;;;18.50;62.10;;;;;;5113935;28;20031;-61
2021/01/06 08:50:22;;;;;;;16.33;10.00;;;18.50;62.30;;;;;;5113949;28;20426;-61
2021/01/06 08:52:52;;;;;;;17.70;10.40;;;18.40;62.50;;;;;;5114377;28;20027;-61
2021/01/06 08:55:25;;;;;;;17.42;10.20;;;18.30;63.00;;;;;;5114065;28;20461;-61
2021/01/06 08:58:17;;;;;;;15.88;8.63;;;18.40;62.70;;;;;;5114331;28;20036;-61
2021/01/06 09:00:56;;;;;;;14.65;9.98;;;18.30;62.80;;;;;;5111134;28;20036;-61
2021/01/06 09:03:54;;;;;;;14.30;9.07;;;18.20;62.80;;;;;;5114198;28;20121;-61
2021/01/06 09:06:22;;;;;;;16.90;9.38;;;18.20;63.20;;;;;;5114258;28;20406;-60
2021/01/06 09:09:30;;;;;;;15.95;9.10;;;18.10;63.30;;;;;;5114240;28;20032;-60
2021/01/06 09:11:56;;;;;;;13.25;7.55;;;18.20;63.10;;;;;;5113688;28;20469;-60
2021/01/06 09:14:37;;;;;;;17.00;9.13;;;18.20;62.80;;;;;;5113636;28;20024;-60
2021/01/06 09:17:18;;;;;;;12.02;7.50;;;18.30;62.70;;;;;;5114239;28;20080;-60
2021/01/06 09:19:50;;;;;;;13.77;8.23;;;18.30;62.70;;;;;;5114172;28;20016;-60
2021/01/06 09:22:16;;;;;;;13.57;8.65;;;18.40;62.40;;;;;;5113926;28;20016;-66
2021/01/06 09:24:43;;;;;;;15.90;8.55;;;18.40;62.60;;;;;;5112346;28;20397;-64
2021/01/06 09:27:24;;;;;;;14.55;8.20;;;18.30;62.30;;;;;;5116060;28;20028;-62
2021/01/06 09:29:51;;;;;;;16.30;8.45;;;18.40;62.40;;;;;;5117977;28;20373;-61
2021/01/06 09:32:22;;;;;;;14.85;7.75;;;18.40;63.10;;;;;;5117973;27;20130;-60
2021/01/06 09:34:54;;;;;;;130.95;22.42;;;18.50;64.20;;;;;;5117853;28;20039;-61
2021/01/06 09:37:27;;;;;;;122.22;22.20;;;18.60;66.00;;;;;;5117815;28;20027;-62
2021/01/06 09:39:55;;;;;;;110.63;23.20;;;18.80;63.20;;;;;;5117430;28;20023;-64
2021/01/06 09:42:21;;;;;;;107.95;21.45;;;18.90;62.70;;;;;;5117522;28;20161;-62
2021/01/06 09:44:49;;;;;;;97.05;18.55;;;19.00;62.30;;;;;;5117865;28;20107;-66
2021/01/06 09:47:34;;;;;;;76.70;18.38;;;19.00;62.00;;;;;;5117302;28;20028;-65
2021/01/06 09:50:13;;;;;;;79.57;17.77;;;19.00;62.00;;;;;;5117510;28;20035;-67
2021/01/06 09:52:42;;;;;;;63.97;14.50;;;18.90;62.10;;;;;;5117277;28;20111;-66
2021/01/06 09:55:14;;;;;;;75.40;15.68;;;18.90;62.10;;;;;;5117316;28;20048;-65
2021/01/06 09:57:41;;;;;;;71.20;14.52;;;18.90;62.10;;;;;;5117393;28;20477;-65
2021/01/06 10:00:46;;;;;;;60.58;14.88;;;18.80;62.10;;;;;;5115665;28;20031;-64
2021/01/06 10:03:12;;;;;;;61.25;13.82;;;18.80;62.10;;;;;;5117254;28;20051;-66
2021/01/06 10:06:19;;;;;;;57.65;13.63;;;18.80;62.20;;;;;;5117109;28;20027;-63
2021/01/06 10:08:52;;;;;;;65.13;13.40;;;18.80;62.30;;;;;;5117468;28;20035;-65
2021/01/06 10:11:39;;;;;;;40.25;13.88;;;18.70;62.30;;;;;;5117271;28;20039;-62
2021/01/06 10:14:14;;;;;;;51.30;13.15;;;18.60;62.80;;;;;;5116887;28;20027;-58
2021/01/06 10:16:53;;;;;;;41.78;12.43;;;18.60;62.80;;;;;;5116870;28;20076;-58
2021/01/06 10:19:42;;;;;;;38.75;10.63;;;18.60;61.10;;;;;;5117237;28;20114;-61
2021/01/06 10:22:35;;;;;;;42.05;11.55;;;18.60;60.70;;;;;;5116762;28;20015;-61
2021/01/06 10:25:33;;;;;;;32.58;10.43;;;18.60;60.70;;;;;;5116422;28;20028;-61
2021/01/06 10:28:12;;;;;;;34.10;9.65;;;18.60;61.10;;;;;;5108185;28;20048;-60
2021/01/06 10:30:38;;;;;;;31.70;10.63;;;18.50;61.30;;;;;;5116819;28;20103;-60
2021/01/06 10:33:16;;;;;;;35.00;9.05;;;18.40;61.70;;;;;;5116624;27;20105;-61
2021/01/06 10:36:27;;;;;;;34.17;9.70;;;18.30;62.00;;;;;;5117236;28;20030;-61
2021/01/06 10:38:53;;;;;;;31.05;9.48;;;18.30;62.30;;;;;;5086934;28;20048;-61
2021/01/06 10:41:19;;;;;;;34.03;9.05;;;18.20;62.50;;;;;;5116502;28;20465;-61
2021/01/06 10:43:53;;;;;;;34.08;9.68;;;18.10;62.60;;;;;;5116341;28;20024;-61
2021/01/06 10:46:55;;;;;;;24.27;9.20;;;18.10;62.70;;;;;;5116758;28;20075;-61
2021/01/06 10:49:21;;;;;;;29.30;10.20;;;18.10;63.00;;;;;;5116043;28;20048;-61
2021/01/06 10:51:58;;;;;;;24.10;7.85;;;18.00;63.00;;;;;;5116234;28;20102;-60
2021/01/06 10:54:38;;;;;;;32.13;9.00;;;18.00;63.20;;;;;;5116179;28;20024;-61
2021/01/06 10:57:29;;;;;;;25.40;8.98;;;18.00;63.30;;;;;;5116445;28;20102;-64
2021/01/06 11:00:13;;;;;;;30.52;9.10;;;18.10;63.40;;;;;;5116202;28;20099;-60
2021/01/06 11:03:11;;;;;;;23.90;8.55;;;18.00;63.50;;;;;;5116761;28;20061;-60
2021/01/06 11:05:42;;;;;;;25.50;8.95;;;18.00;63.50;;;;;;5116232;28;20088;-60
2021/01/06 11:08:27;;;;;;;29.48;8.98;;;18.10;63.50;;;;;;5115616;28;20088;-60
2021/01/06 11:11:22;;;;;;;24.85;9.93;;;18.20;63.40;;;;;;5115881;28;20574;-60
2021/01/06 11:14:06;;;;;;;23.90;7.70;;;18.30;63.00;;;;;;5116250;28;20457;-60
2021/01/06 11:16:49;;;;;;;35.50;8.68;;;18.30;62.80;;;;;;5115764;28;20024;-59
2021/01/06 11:19:49;;;;;;;27.20;7.63;;;18.40;62.50;;;;;;5116472;28;20354;-60
2021/01/06 11:22:17;;;;;;;25.38;7.80;;;18.50;62.50;;;;;;5115470;28;20024;-60
2021/01/06 11:24:54;;;;;;;23.60;8.57;;;18.50;62.40;;;;;;5115564;28;20035;-60
2021/01/06 11:27:47;;;;;;;27.25;8.50;;;18.60;62.20;;;;;;5115330;28;20464;-60
2021/01/06 11:30:21;;;;;;;32.63;8.98;;;18.80;61.30;;;;;;5115516;28;20024;-60
2021/01/06 11:32:48;;;;;;;25.40;7.50;;;19.10;60.30;;;;;;5115482;28;20019;-60
2021/01/06 11:35:21;;;;;;;22.88;7.18;;;19.20;59.80;;;;;;5115426;28;20027;-60
2021/01/06 11:37:47;;;;;;;26.70;7.10;;;19.30;59.70;;;;;;5115203;28;20024;-60
2021/01/06 11:40:35;;;;;;;25.60;7.32;;;19.30;59.50;;;;;;5115502;28;20035;-60
2021/01/06 11:43:00;;;;;;;17.95;6.40;;;19.20;59.50;;;;;;5115270;28;20035;-59
2021/01/06 11:45:35;;;;;;;17.02;6.20;;;19.20;59.60;;;;;;5114965;28;20019;-59
2021/01/06 11:48:22;;;;;;;16.98;6.45;;;19.10;59.60;;;;;;5115037;28;20139;-60
2021/01/06 11:50:49;;;;;;;19.48;7.07;;;19.10;59.70;;;;;;5114639;28;20027;-60
2021/01/06 11:53:23;;;;;;;22.42;7.03;;;19.00;59.80;;;;;;5115263;28;20044;-60
2021/01/06 11:56:17;;;;;;;13.30;5.53;;;19.00;59.80;;;;;;5114989;28;20023;-58
2021/01/06 11:59:01;;;;;;;17.52;6.80;;;18.70;58.90;;;;;;5115096;28;20043;-61
2021/01/06 12:01:40;;;;;;;13.95;4.80;;;18.60;57.00;;;;;;5114500;28;20098;-60
2021/01/06 12:04:13;;;;;;;14.40;5.60;;;18.60;56.00;;;;;;5115049;28;20465;-60
2021/01/06 12:07:05;;;;;;;19.17;7.30;;;18.60;55.20;;;;;;5114047;28;20023;-59
2021/01/06 12:09:50;;;;;;;46.00;24.90;;;18.50;54.10;;;;;;5088249;28;20048;-61
2021/01/06 12:12:54;;;;;;;42.55;25.77;;;18.50;53.90;;;;;;5105298;28;20020;-62
2021/01/06 12:15:45;;;;;;;77.07;41.00;;;18.40;53.50;;;;;;5114167;28;20031;-61
2021/01/06 12:18:55;;;;;;;165.05;87.85;;;18.40;53.50;;;;;;5082737;28;20482;-65
2021/01/06 12:21:36;;;;;;;215.32;110.68;;;18.30;53.20;;;;;;5097824;28;20046;-71
2021/01/06 12:24:28;;;;;;;292.05;151.52;;;18.20;52.70;;;;;;5112664;28;20085;-70
2021/01/06 12:27:28;;;;;;;237.52;127.43;;;18.10;50.40;;;;;;5111587;28;20051;-70
2021/01/06 12:30:02;;;;;;;187.70;97.60;;;17.90;49.60;;;;;;5111710;28;20058;-68
2021/01/06 12:32:39;;;;;;;171.35;88.97;;;17.90;48.50;;;;;;5113844;28;20019;-69
2021/01/06 12:35:06;;;;;;;154.70;80.13;;;17.90;49.20;;;;;;5113437;28;20532;-70
2021/01/06 12:37:34;;;;;;;151.35;75.90;;;18.10;50.10;;;;;;5110765;28;20019;-65
2021/01/06 12:39:59;;;;;;;139.73;72.28;;;18.20;50.20;;;;;;5113795;28;20465;-69
2021/01/06 12:42:40;;;;;;;137.18;70.95;;;18.40;50.10;;;;;;5113760;28;20061;-70
2021/01/06 12:45:15;;;;;;;120.88;64.50;;;18.40;50.80;;;;;;5112954;28;20469;-71
2021/01/06 12:47:55;;;;;;;114.40;60.97;;;18.50;51.20;;;;;;5111902;28;20032;-73
2021/01/06 12:50:42;;;;;;;112.97;59.35;;;18.60;51.30;;;;;;5111984;28;20061;-74
2021/01/06 12:53:19;;;;;;;114.38;54.60;;;18.70;51.60;;;;;;5112635;28;20061;-67
2021/01/06 12:56:12;;;;;;;102.22;53.50;;;18.80;51.70;;;;;;5112343;28;20011;-73
2021/01/06 12:58:45;;;;;;;108.35;53.40;;;18.90;52.00;;;;;;5111478;28;20105;-75
2021/01/06 13:01:26;;;;;;;97.80;51.45;;;19.00;52.00;;;;;;5115094;27;20358;-74
2021/01/06 13:04:05;;;;;;;90.43;49.00;;;19.10;52.10;;;;;;5115347;28;20423;-70
2021/01/06 13:06:30;;;;;;;118.85;64.63;;;19.20;52.00;;;;;;5116556;28;20420;-71
2021/01/06 13:09:11;;;;;;;133.10;76.50;;;19.20;52.20;;;;;;5114482;28;20023;-70
2021/01/06 13:11:37;;;;;;;162.38;87.28;;;19.20;52.50;;;;;;5113701;28;20019;-68